sensor_id;sensor_type;location;lat;lon;timestamp;P1;durP1;ratioP1;P2;durP2;ratioP2
14007;SDS011;61651;45.508;12.232;2023-04-08T00:00:20;13.07;;;11.07;;
14007;SDS011;61651;45.508;12.232;2023-04-08T00:03:22;11.70;;;10.43;;
14007;SDS011;61651;45.508;12.232;2023-04-08T00:06:23;13.60;;;11.07;;
14007;SDS011;61651;45.508;12.232;2023-04-08T00:09:27;13.57;;;12.17;;
14007;SDS011;61651;45.508;12.232;2023-04-08T00:12:29;14.33;;;12.20;;
14007;SDS011;61651;45.508;12.232;2023-04-08T00:15:31;15.63;;;13.27;;
14007;SDS011;61651;45.508;12.232;2023-04-08T00:18:33;14.87;;;13.23;;
14007;SDS011;61651;45.508;12.232;2023-04-08T00:21:37;13.83;;;12.13;;
14007;SDS011;61651;45.508;12.232;2023-04-08T00:24:40;15.37;;;12.83;;
14007;SDS011;61651;45.508;12.232;2023-04-08T00:27:42;16.07;;;13.20;;
14007;SDS011;61651;45.508;12.232;2023-04-08T00:30:44;13.83;;;12.43;;
14007;SDS011;61651;45.508;12.232;2023-04-08T00:33:46;14.10;;;12.63;;
14007;SDS011;61651;45.508;12.232;2023-04-08T00:36:48;15.23;;;13.73;;
14007;SDS011;61651;45.508;12.232;2023-04-08T00:39:52;17.63;;;13.67;;
14007;SDS011;61651;45.508;12.232;2023-04-08T00:42:55;15.93;;;12.40;;
14007;SDS011;61651;45.508;12.232;2023-04-08T00:45:57;17.27;;;13.33;;
14007;SDS011;61651;45.508;12.232;2023-04-08T00:48:59;14.37;;;12.10;;
14007;SDS011;61651;45.508;12.232;2023-04-08T00:52:02;14.77;;;12.13;;
14007;SDS011;61651;45.508;12.232;2023-04-08T00:55:05;16.07;;;12.07;;
14007;SDS011;61651;45.508;12.232;2023-04-08T00:58:08;14.13;;;12.47;;
14007;SDS011;61651;45.508;12.232;2023-04-08T01:01:11;14.80;;;12.47;;
14007;SDS011;61651;45.508;12.232;2023-04-08T01:04:21;14.10;;;12.57;;
14007;SDS011;61651;45.508;12.232;2023-04-08T01:07:30;14.97;;;13.27;;
14007;SDS011;61651;45.508;12.232;2023-04-08T01:10:36;15.43;;;12.47;;
14007;SDS011;61651;45.508;12.232;2023-04-08T01:13:41;14.97;;;13.00;;
14007;SDS011;61651;45.508;12.232;2023-04-08T01:16:45;16.63;;;14.70;;
14007;SDS011;61651;45.508;12.232;2023-04-08T01:19:48;15.40;;;13.87;;
14007;SDS011;61651;45.508;12.232;2023-04-08T01:23:01;16.87;;;13.27;;
14007;SDS011;61651;45.508;12.232;2023-04-08T01:26:11;14.97;;;13.33;;
14007;SDS011;61651;45.508;12.232;2023-04-08T01:29:21;14.77;;;13.17;;
14007;SDS011;61651;45.508;12.232;2023-04-08T01:32:24;20.50;;;13.67;;
14007;SDS011;61651;45.508;12.232;2023-04-08T01:35:27;16.87;;;14.23;;
14007;SDS011;61651;45.508;12.232;2023-04-08T01:38:30;15.80;;;14.10;;
14007;SDS011;61651;45.508;12.232;2023-04-08T01:41:36;17.90;;;14.27;;
14007;SDS011;61651;45.508;12.232;2023-04-08T01:44:38;16.70;;;13.67;;
14007;SDS011;61651;45.508;12.232;2023-04-08T01:47:41;17.23;;;13.47;;
14007;SDS011;61651;45.508;12.232;2023-04-08T01:50:46;14.50;;;12.67;;
14007;SDS011;61651;45.508;12.232;2023-04-08T01:53:50;15.03;;;12.97;;
14007;SDS011;61651;45.508;12.232;2023-04-08T01:56:53;16.20;;;13.70;;
14007;SDS011;61651;45.508;12.232;2023-04-08T02:00:05;17.10;;;13.37;;
14007;SDS011;61651;45.508;12.232;2023-04-08T02:03:09;14.90;;;13.27;;
14007;SDS011;61651;45.508;12.232;2023-04-08T02:06:13;14.37;;;12.87;;
14007;SDS011;61651;45.508;12.232;2023-04-08T02:09:15;14.80;;;12.77;;
14007;SDS011;61651;45.508;12.232;2023-04-08T02:12:18;17.07;;;13.87;;
14007;SDS011;61651;45.508;12.232;2023-04-08T02:15:20;16.63;;;12.50;;
14007;SDS011;61651;45.508;12.232;2023-04-08T02:18:24;14.67;;;12.73;;
14007;SDS011;61651;45.508;12.232;2023-04-08T02:21:32;15.87;;;13.07;;
14007;SDS011;61651;45.508;12.232;2023-04-08T02:24:39;14.70;;;12.73;;
14007;SDS011;61651;45.508;12.232;2023-04-08T02:27:43;17.07;;;13.60;;
14007;SDS011;61651;45.508;12.232;2023-04-08T02:30:48;15.07;;;13.50;;
14007;SDS011;61651;45.508;12.232;2023-04-08T02:33:51;14.80;;;12.93;;
14007;SDS011;61651;45.508;12.232;2023-04-08T02:36:53;14.53;;;13.00;;
14007;SDS011;61651;45.508;12.232;2023-04-08T02:39:55;17.73;;;12.57;;
14007;SDS011;61651;45.508;12.232;2023-04-08T02:42:59;16.30;;;13.47;;
14007;SDS011;61651;45.508;12.232;2023-04-08T02:46:01;14.47;;;12.97;;
14007;SDS011;61651;45.508;12.232;2023-04-08T02:49:03;13.13;;;11.80;;
14007;SDS011;61651;45.508;12.232;2023-04-08T02:52:05;16.37;;;13.27;;
14007;SDS011;61651;45.508;12.232;2023-04-08T02:55:07;13.93;;;12.40;;
14007;SDS011;61651;45.508;12.232;2023-04-08T02:58:11;16.77;;;12.20;;
14007;SDS011;61651;45.508;12.232;2023-04-08T03:01:13;13.47;;;11.53;;
14007;SDS011;61651;45.508;12.232;2023-04-08T03:04:15;13.07;;;11.70;;
14007;SDS011;61651;45.508;12.232;2023-04-08T03:07:17;13.10;;;11.37;;
14007;SDS011;61651;45.508;12.232;2023-04-08T03:10:19;13.63;;;11.47;;
14007;SDS011;61651;45.508;12.232;2023-04-08T03:13:22;12.70;;;11.40;;
14007;SDS011;61651;45.508;12.232;2023-04-08T03:16:24;12.33;;;11.00;;
14007;SDS011;61651;45.508;12.232;2023-04-08T03:19:26;13.83;;;12.33;;
14007;SDS011;61651;45.508;12.232;2023-04-08T03:22:28;16.33;;;11.83;;
14007;SDS011;61651;45.508;12.232;2023-04-08T03:25:30;15.93;;;12.53;;
14007;SDS011;61651;45.508;12.232;2023-04-08T03:28:33;13.43;;;11.80;;
14007;SDS011;61651;45.508;12.232;2023-04-08T03:31:35;14.80;;;12.30;;
14007;SDS011;61651;45.508;12.232;2023-04-08T03:34:37;14.70;;;13.10;;
14007;SDS011;61651;45.508;12.232;2023-04-08T03:37:39;13.17;;;11.63;;
14007;SDS011;61651;45.508;12.232;2023-04-08T03:40:41;13.83;;;11.23;;
14007;SDS011;61651;45.508;12.232;2023-04-08T03:43:44;13.53;;;11.77;;
14007;SDS011;61651;45.508;12.232;2023-04-08T03:46:46;14.30;;;12.80;;
14007;SDS011;61651;45.508;12.232;2023-04-08T03:49:48;13.87;;;12.37;;
14007;SDS011;61651;45.508;12.232;2023-04-08T03:52:52;13.47;;;12.07;;
14007;SDS011;61651;45.508;12.232;2023-04-08T03:55:54;15.23;;;12.87;;
14007;SDS011;61651;45.508;12.232;2023-04-08T03:58:58;16.10;;;13.80;;
14007;SDS011;61651;45.508;12.232;2023-04-08T04:02:00;16.90;;;13.27;;
14007;SDS011;61651;45.508;12.232;2023-04-08T04:05:02;16.53;;;14.13;;
14007;SDS011;61651;45.508;12.232;2023-04-08T04:08:04;16.30;;;14.13;;
14007;SDS011;61651;45.508;12.232;2023-04-08T04:11:06;18.83;;;14.40;;
14007;SDS011;61651;45.508;12.232;2023-04-08T04:14:09;17.13;;;15.17;;
14007;SDS011;61651;45.508;12.232;2023-04-08T04:17:11;16.90;;;15.07;;
14007;SDS011;61651;45.508;12.232;2023-04-08T04:20:13;17.30;;;14.30;;
14007;SDS011;61651;45.508;12.232;2023-04-08T04:23:15;16.67;;;14.67;;
14007;SDS011;61651;45.508;12.232;2023-04-08T04:26:17;17.20;;;15.37;;
14007;SDS011;61651;45.508;12.232;2023-04-08T04:29:21;18.50;;;15.27;;
14007;SDS011;61651;45.508;12.232;2023-04-08T04:32:23;17.83;;;15.93;;
14007;SDS011;61651;45.508;12.232;2023-04-08T04:35:25;17.73;;;15.43;;
14007;SDS011;61651;45.508;12.232;2023-04-08T04:38:27;17.47;;;13.77;;
14007;SDS011;61651;45.508;12.232;2023-04-08T04:41:29;17.83;;;15.47;;
14007;SDS011;61651;45.508;12.232;2023-04-08T04:44:32;17.33;;;14.83;;
14007;SDS011;61651;45.508;12.232;2023-04-08T04:47:34;17.23;;;15.03;;
14007;SDS011;61651;45.508;12.232;2023-04-08T04:50:36;18.37;;;16.37;;
14007;SDS011;61651;45.508;12.232;2023-04-08T04:53:38;17.57;;;15.77;;
14007;SDS011;61651;45.508;12.232;2023-04-08T04:56:40;17.13;;;14.93;;
14007;SDS011;61651;45.508;12.232;2023-04-08T04:59:43;22.10;;;16.93;;
14007;SDS011;61651;45.508;12.232;2023-04-08T05:02:45;21.43;;;17.30;;
14007;SDS011;61651;45.508;12.232;2023-04-08T05:05:49;20.93;;;17.50;;
14007;SDS011;61651;45.508;12.232;2023-04-08T05:08:52;22.50;;;17.67;;
14007;SDS011;61651;45.508;12.232;2023-04-08T05:11:54;22.53;;;16.73;;
14007;SDS011;61651;45.508;12.232;2023-04-08T05:14:58;19.27;;;16.97;;
14007;SDS011;61651;45.508;12.232;2023-04-08T05:18:00;19.03;;;16.33;;
14007;SDS011;61651;45.508;12.232;2023-04-08T05:21:02;20.20;;;17.97;;
14007;SDS011;61651;45.508;12.232;2023-04-08T05:24:04;20.23;;;16.90;;
14007;SDS011;61651;45.508;12.232;2023-04-08T05:27:06;22.27;;;18.13;;
14007;SDS011;61651;45.508;12.232;2023-04-08T05:30:09;19.60;;;17.00;;
14007;SDS011;61651;45.508;12.232;2023-04-08T05:33:12;21.93;;;18.20;;
14007;SDS011;61651;45.508;12.232;2023-04-08T05:36:14;22.07;;;17.70;;
14007;SDS011;61651;45.508;12.232;2023-04-08T05:39:16;22.50;;;18.80;;
14007;SDS011;61651;45.508;12.232;2023-04-08T05:42:18;25.03;;;18.83;;
14007;SDS011;61651;45.508;12.232;2023-04-08T05:45:21;25.40;;;18.87;;
14007;SDS011;61651;45.508;12.232;2023-04-08T05:48:23;25.10;;;19.20;;
14007;SDS011;61651;45.508;12.232;2023-04-08T05:51:25;24.60;;;18.57;;
14007;SDS011;61651;45.508;12.232;2023-04-08T05:54:27;21.47;;;18.10;;
14007;SDS011;61651;45.508;12.232;2023-04-08T05:57:29;23.50;;;18.03;;
14007;SDS011;61651;45.508;12.232;2023-04-08T06:00:33;21.67;;;18.13;;
14007;SDS011;61651;45.508;12.232;2023-04-08T06:03:35;22.83;;;18.80;;
14007;SDS011;61651;45.508;12.232;2023-04-08T06:06:36;21.23;;;18.90;;
14007;SDS011;61651;45.508;12.232;2023-04-08T06:09:39;22.00;;;18.43;;
14007;SDS011;61651;45.508;12.232;2023-04-08T06:12:41;22.57;;;18.37;;
14007;SDS011;61651;45.508;12.232;2023-04-08T06:15:44;23.30;;;18.50;;
14007;SDS011;61651;45.508;12.232;2023-04-08T06:18:47;21.87;;;18.20;;
14007;SDS011;61651;45.508;12.232;2023-04-08T06:21:50;21.87;;;17.53;;
14007;SDS011;61651;45.508;12.232;2023-04-08T06:24:51;26.43;;;18.80;;
14007;SDS011;61651;45.508;12.232;2023-04-08T06:27:53;21.07;;;18.00;;
14007;SDS011;61651;45.508;12.232;2023-04-08T06:30:57;20.27;;;17.87;;
14007;SDS011;61651;45.508;12.232;2023-04-08T06:33:59;21.60;;;16.97;;
14007;SDS011;61651;45.508;12.232;2023-04-08T06:37:01;23.87;;;17.13;;
14007;SDS011;61651;45.508;12.232;2023-04-08T06:40:03;21.83;;;15.13;;
14007;SDS011;61651;45.508;12.232;2023-04-08T06:43:06;18.47;;;15.30;;
14007;SDS011;61651;45.508;12.232;2023-04-08T06:46:09;19.63;;;14.97;;
14007;SDS011;61651;45.508;12.232;2023-04-08T06:49:11;17.07;;;15.00;;
14007;SDS011;61651;45.508;12.232;2023-04-08T06:52:13;20.20;;;16.33;;
14007;SDS011;61651;45.508;12.232;2023-04-08T06:55:16;21.07;;;16.40;;
14007;SDS011;61651;45.508;12.232;2023-04-08T06:58:18;21.37;;;16.63;;
14007;SDS011;61651;45.508;12.232;2023-04-08T07:01:21;25.07;;;16.07;;
14007;SDS011;61651;45.508;12.232;2023-04-08T07:04:24;18.30;;;16.03;;
14007;SDS011;61651;45.508;12.232;2023-04-08T07:07:25;21.87;;;16.70;;
14007;SDS011;61651;45.508;12.232;2023-04-08T07:10:27;17.90;;;15.90;;
14007;SDS011;61651;45.508;12.232;2023-04-08T07:13:29;17.47;;;15.03;;
14007;SDS011;61651;45.508;12.232;2023-04-08T07:16:33;19.53;;;14.53;;
14007;SDS011;61651;45.508;12.232;2023-04-08T07:19:35;17.53;;;14.87;;
14007;SDS011;61651;45.508;12.232;2023-04-08T07:22:37;19.77;;;15.20;;
14007;SDS011;61651;45.508;12.232;2023-04-08T07:25:39;17.83;;;14.40;;
14007;SDS011;61651;45.508;12.232;2023-04-08T07:28:41;17.97;;;14.00;;
14007;SDS011;61651;45.508;12.232;2023-04-08T07:31:44;17.63;;;15.10;;
14007;SDS011;61651;45.508;12.232;2023-04-08T07:34:47;17.50;;;14.60;;
14007;SDS011;61651;45.508;12.232;2023-04-08T07:37:49;16.63;;;13.97;;
14007;SDS011;61651;45.508;12.232;2023-04-08T07:40:52;20.20;;;14.47;;
14007;SDS011;61651;45.508;12.232;2023-04-08T07:43:54;17.83;;;13.63;;
14007;SDS011;61651;45.508;12.232;2023-04-08T07:46:57;14.87;;;13.27;;
14007;SDS011;61651;45.508;12.232;2023-04-08T07:49:59;15.63;;;13.97;;
14007;SDS011;61651;45.508;12.232;2023-04-08T07:53:01;15.20;;;13.60;;
14007;SDS011;61651;45.508;12.232;2023-04-08T07:56:09;14.13;;;12.33;;
14007;SDS011;61651;45.508;12.232;2023-04-08T07:59:12;16.20;;;13.07;;
14007;SDS011;61651;45.508;12.232;2023-04-08T08:02:15;15.27;;;12.57;;
14007;SDS011;61651;45.508;12.232;2023-04-08T08:05:17;13.73;;;11.50;;
14007;SDS011;61651;45.508;12.232;2023-04-08T08:08:19;12.43;;;10.73;;
14007;SDS011;61651;45.508;12.232;2023-04-08T08:11:21;16.87;;;11.70;;
14007;SDS011;61651;45.508;12.232;2023-04-08T08:14:23;16.55;;;11.73;;
14007;SDS011;61651;45.508;12.232;2023-04-08T08:17:27;12.15;;;9.90;;
14007;SDS011;61651;45.508;12.232;2023-04-08T08:20:34;11.18;;;9.30;;
14007;SDS011;61651;45.508;12.232;2023-04-08T08:23:36;11.60;;;9.38;;
14007;SDS011;61651;45.508;12.232;2023-04-08T08:26:38;11.27;;;8.88;;
14007;SDS011;61651;45.508;12.232;2023-04-08T08:29:40;9.77;;;8.18;;
14007;SDS011;61651;45.508;12.232;2023-04-08T08:32:44;10.65;;;7.93;;
14007;SDS011;61651;45.508;12.232;2023-04-08T08:35:46;8.20;;;6.93;;
14007;SDS011;61651;45.508;12.232;2023-04-08T08:38:48;7.35;;;6.20;;
14007;SDS011;61651;45.508;12.232;2023-04-08T08:41:50;12.43;;;6.53;;
14007;SDS011;61651;45.508;12.232;2023-04-08T08:44:52;8.55;;;6.88;;
14007;SDS011;61651;45.508;12.232;2023-04-08T08:47:56;9.27;;;7.35;;
14007;SDS011;61651;45.508;12.232;2023-04-08T08:50:58;8.20;;;6.40;;
14007;SDS011;61651;45.508;12.232;2023-04-08T08:54:01;9.63;;;6.80;;
14007;SDS011;61651;45.508;12.232;2023-04-08T08:57:03;8.38;;;6.00;;
14007;SDS011;61651;45.508;12.232;2023-04-08T09:00:06;7.05;;;5.70;;
14007;SDS011;61651;45.508;12.232;2023-04-08T09:03:17;7.72;;;5.68;;
14007;SDS011;61651;45.508;12.232;2023-04-08T09:06:20;10.43;;;6.82;;
14007;SDS011;61651;45.508;12.232;2023-04-08T09:09:22;8.65;;;5.85;;
14007;SDS011;61651;45.508;12.232;2023-04-08T09:12:26;7.63;;;6.65;;
14007;SDS011;61651;45.508;12.232;2023-04-08T09:15:28;7.57;;;6.27;;
14007;SDS011;61651;45.508;12.232;2023-04-08T09:18:32;9.38;;;7.32;;
14007;SDS011;61651;45.508;12.232;2023-04-08T09:21:35;8.48;;;5.97;;
14007;SDS011;61651;45.508;12.232;2023-04-08T09:24:37;6.20;;;5.18;;
14007;SDS011;61651;45.508;12.232;2023-04-08T09:27:39;7.27;;;4.90;;
14007;SDS011;61651;45.508;12.232;2023-04-08T09:30:41;4.90;;;3.70;;
14007;SDS011;61651;45.508;12.232;2023-04-08T09:33:45;5.88;;;3.13;;
14007;SDS011;61651;45.508;12.232;2023-04-08T09:36:47;10.25;;;3.50;;
14007;SDS011;61651;45.508;12.232;2023-04-08T09:39:49;3.13;;;2.65;;
14007;SDS011;61651;45.508;12.232;2023-04-08T09:42:51;4.13;;;3.00;;
14007;SDS011;61651;45.508;12.232;2023-04-08T09:45:55;6.38;;;3.65;;
14007;SDS011;61651;45.508;12.232;2023-04-08T09:49:03;3.47;;;3.17;;
14007;SDS011;61651;45.508;12.232;2023-04-08T09:52:08;3.45;;;3.15;;
14007;SDS011;61651;45.508;12.232;2023-04-08T09:55:14;4.03;;;3.50;;
14007;SDS011;61651;45.508;12.232;2023-04-08T09:58:24;4.15;;;3.40;;
14007;SDS011;61651;45.508;12.232;2023-04-08T10:01:31;4.22;;;3.63;;
14007;SDS011;61651;45.508;12.232;2023-04-08T10:04:40;6.28;;;4.53;;
14007;SDS011;61651;45.508;12.232;2023-04-08T10:07:49;4.30;;;3.90;;
14007;SDS011;61651;45.508;12.232;2023-04-08T10:10:51;7.07;;;4.85;;
14007;SDS011;61651;45.508;12.232;2023-04-08T10:13:55;7.10;;;5.00;;
14007;SDS011;61651;45.508;12.232;2023-04-08T10:23:52;6.43;;;5.72;;
14007;SDS011;61651;45.508;12.232;2023-04-08T10:26:58;6.15;;;4.63;;
14007;SDS011;61651;45.508;12.232;2023-04-08T10:30:01;7.22;;;4.13;;
14007;SDS011;61651;45.508;12.232;2023-04-08T10:33:08;3.75;;;3.45;;
14007;SDS011;61651;45.508;12.232;2023-04-08T10:36:14;4.43;;;3.75;;
14007;SDS011;61651;45.508;12.232;2023-04-08T10:39:16;3.42;;;2.90;;
14007;SDS011;61651;45.508;12.232;2023-04-08T10:42:19;2.67;;;2.47;;
14007;SDS011;61651;45.508;12.232;2023-04-08T10:45:26;4.13;;;2.60;;
14007;SDS011;61651;45.508;12.232;2023-04-08T10:48:28;2.85;;;2.42;;
14007;SDS011;61651;45.508;12.232;2023-04-08T10:51:32;3.50;;;2.53;;
14007;SDS011;61651;45.508;12.232;2023-04-08T10:54:35;5.65;;;2.58;;
14007;SDS011;61651;45.508;12.232;2023-04-08T10:57:38;2.58;;;2.38;;
14007;SDS011;61651;45.508;12.232;2023-04-08T11:00:40;3.20;;;2.28;;
14007;SDS011;61651;45.508;12.232;2023-04-08T11:03:42;4.95;;;2.65;;
14007;SDS011;61651;45.508;12.232;2023-04-08T11:06:46;4.38;;;2.47;;
14007;SDS011;61651;45.508;12.232;2023-04-08T11:09:48;14.32;;;4.90;;
14007;SDS011;61651;45.508;12.232;2023-04-08T11:12:50;8.35;;;5.05;;
14007;SDS011;61651;45.508;12.232;2023-04-08T11:15:53;19.35;;;7.47;;
14007;SDS011;61651;45.508;12.232;2023-04-08T11:18:55;8.95;;;5.07;;
14007;SDS011;61651;45.508;12.232;2023-04-08T11:21:59;8.57;;;5.22;;
14007;SDS011;61651;45.508;12.232;2023-04-08T11:25:02;4.70;;;3.13;;
14007;SDS011;61651;45.508;12.232;2023-04-08T11:28:07;7.50;;;3.60;;
14007;SDS011;61651;45.508;12.232;2023-04-08T11:31:09;3.97;;;2.88;;
14007;SDS011;61651;45.508;12.232;2023-04-08T11:34:12;4.93;;;3.40;;
14007;SDS011;61651;45.508;12.232;2023-04-08T11:37:25;6.05;;;3.20;;
14007;SDS011;61651;45.508;12.232;2023-04-08T11:40:27;4.10;;;2.88;;
14007;SDS011;61651;45.508;12.232;2023-04-08T11:43:29;3.70;;;2.85;;
14007;SDS011;61651;45.508;12.232;2023-04-08T11:46:31;5.03;;;2.80;;
14007;SDS011;61651;45.508;12.232;2023-04-08T11:49:42;3.33;;;2.20;;
14007;SDS011;61651;45.508;12.232;2023-04-08T11:52:46;4.63;;;2.80;;
14007;SDS011;61651;45.508;12.232;2023-04-08T11:55:50;4.53;;;3.28;;
14007;SDS011;61651;45.508;12.232;2023-04-08T11:58:52;3.55;;;2.53;;
14007;SDS011;61651;45.508;12.232;2023-04-08T12:01:54;6.22;;;2.70;;
14007;SDS011;61651;45.508;12.232;2023-04-08T12:04:56;5.30;;;3.20;;
14007;SDS011;61651;45.508;12.232;2023-04-08T12:07:59;4.13;;;2.60;;
14007;SDS011;61651;45.508;12.232;2023-04-08T12:11:02;3.80;;;2.38;;
14007;SDS011;61651;45.508;12.232;2023-04-08T12:14:04;4.65;;;2.75;;
14007;SDS011;61651;45.508;12.232;2023-04-08T12:17:06;4.40;;;2.40;;
14007;SDS011;61651;45.508;12.232;2023-04-08T12:20:09;5.65;;;2.70;;
14007;SDS011;61651;45.508;12.232;2023-04-08T12:23:13;6.07;;;3.20;;
14007;SDS011;61651;45.508;12.232;2023-04-08T12:26:15;3.45;;;2.65;;
14007;SDS011;61651;45.508;12.232;2023-04-08T12:29:18;5.40;;;2.80;;
14007;SDS011;61651;45.508;12.232;2023-04-08T12:32:20;3.80;;;2.40;;
14007;SDS011;61651;45.508;12.232;2023-04-08T12:35:24;5.63;;;1.92;;
14007;SDS011;61651;45.508;12.232;2023-04-08T12:38:27;2.30;;;2.10;;
14007;SDS011;61651;45.508;12.232;2023-04-08T12:41:29;2.67;;;2.33;;
14007;SDS011;61651;45.508;12.232;2023-04-08T12:44:31;5.00;;;2.80;;
14007;SDS011;61651;45.508;12.232;2023-04-08T12:47:33;3.15;;;2.47;;
14007;SDS011;61651;45.508;12.232;2023-04-08T12:50:35;2.67;;;1.90;;
14007;SDS011;61651;45.508;12.232;2023-04-08T12:53:38;2.67;;;2.20;;
14007;SDS011;61651;45.508;12.232;2023-04-08T12:56:40;4.97;;;2.35;;
14007;SDS011;61651;45.508;12.232;2023-04-08T12:59:42;2.20;;;2.00;;
14007;SDS011;61651;45.508;12.232;2023-04-08T13:02:44;4.82;;;3.33;;
14007;SDS011;61651;45.508;12.232;2023-04-08T13:05:46;3.20;;;2.33;;
14007;SDS011;61651;45.508;12.232;2023-04-08T13:08:50;3.08;;;2.13;;
14007;SDS011;61651;45.508;12.232;2023-04-08T13:11:52;3.50;;;2.83;;
14007;SDS011;61651;45.508;12.232;2023-04-08T13:14:54;4.00;;;2.05;;
14007;SDS011;61651;45.508;12.232;2023-04-08T13:17:56;2.60;;;1.83;;
14007;SDS011;61651;45.508;12.232;2023-04-08T13:20:57;2.75;;;2.10;;
14007;SDS011;61651;45.508;12.232;2023-04-08T13:24:01;2.30;;;2.10;;
14007;SDS011;61651;45.508;12.232;2023-04-08T13:27:03;3.88;;;2.00;;
14007;SDS011;61651;45.508;12.232;2023-04-08T13:30:06;3.42;;;2.22;;
14007;SDS011;61651;45.508;12.232;2023-04-08T13:33:09;3.10;;;2.00;;
14007;SDS011;61651;45.508;12.232;2023-04-08T13:36:11;3.92;;;2.03;;
14007;SDS011;61651;45.508;12.232;2023-04-08T13:39:14;4.25;;;2.25;;
14007;SDS011;61651;45.508;12.232;2023-04-08T13:42:16;2.38;;;1.90;;
14007;SDS011;61651;45.508;12.232;2023-04-08T13:45:18;2.40;;;1.83;;
14007;SDS011;61651;45.508;12.232;2023-04-08T13:48:20;2.58;;;2.00;;
14007;SDS011;61651;45.508;12.232;2023-04-08T13:51:22;4.33;;;2.20;;
14007;SDS011;61651;45.508;12.232;2023-04-08T13:54:27;2.92;;;1.98;;
14007;SDS011;61651;45.508;12.232;2023-04-08T13:57:29;2.13;;;1.77;;
14007;SDS011;61651;45.508;12.232;2023-04-08T14:00:31;1.92;;;1.75;;
14007;SDS011;61651;45.508;12.232;2023-04-08T14:03:33;4.93;;;1.90;;
14007;SDS011;61651;45.508;12.232;2023-04-08T14:06:35;2.83;;;2.08;;
14007;SDS011;61651;45.508;12.232;2023-04-08T14:09:38;2.53;;;1.90;;
14007;SDS011;61651;45.508;12.232;2023-04-08T14:12:41;3.58;;;2.10;;
14007;SDS011;61651;45.508;12.232;2023-04-08T14:15:43;2.10;;;1.70;;
14007;SDS011;61651;45.508;12.232;2023-04-08T14:18:45;1.92;;;1.75;;
14007;SDS011;61651;45.508;12.232;2023-04-08T14:21:47;2.17;;;1.98;;
14007;SDS011;61651;45.508;12.232;2023-04-08T14:24:51;3.05;;;1.80;;
14007;SDS011;61651;45.508;12.232;2023-04-08T14:27:52;2.10;;;1.80;;
14007;SDS011;61651;45.508;12.232;2023-04-08T14:30:54;2.13;;;1.92;;
14007;SDS011;61651;45.508;12.232;2023-04-08T14:33:56;5.03;;;1.98;;
14007;SDS011;61651;45.508;12.232;2023-04-08T14:36:58;3.03;;;2.40;;
14007;SDS011;61651;45.508;12.232;2023-04-08T14:40:02;3.00;;;1.60;;
14007;SDS011;61651;45.508;12.232;2023-04-08T14:43:05;5.78;;;2.13;;
14007;SDS011;61651;45.508;12.232;2023-04-08T14:46:07;2.50;;;2.30;;
14007;SDS011;61651;45.508;12.232;2023-04-08T14:49:08;4.53;;;2.70;;
14007;SDS011;61651;45.508;12.232;2023-04-08T14:52:10;3.95;;;2.45;;
14007;SDS011;61651;45.508;12.232;2023-04-08T14:55:14;3.63;;;2.15;;
14007;SDS011;61651;45.508;12.232;2023-04-08T14:58:16;3.13;;;2.38;;
14007;SDS011;61651;45.508;12.232;2023-04-08T15:01:19;4.07;;;2.50;;
14007;SDS011;61651;45.508;12.232;2023-04-08T15:04:21;3.92;;;2.22;;
14007;SDS011;61651;45.508;12.232;2023-04-08T15:07:23;4.57;;;2.20;;
14007;SDS011;61651;45.508;12.232;2023-04-08T15:10:27;4.15;;;2.22;;
14007;SDS011;61651;45.508;12.232;2023-04-08T15:13:29;2.70;;;2.30;;
14007;SDS011;61651;45.508;12.232;2023-04-08T15:16:30;6.93;;;2.83;;
14007;SDS011;61651;45.508;12.232;2023-04-08T15:19:32;5.03;;;2.40;;
14007;SDS011;61651;45.508;12.232;2023-04-08T15:22:34;3.17;;;2.25;;
14007;SDS011;61651;45.508;12.232;2023-04-08T15:25:38;3.33;;;1.90;;
14007;SDS011;61651;45.508;12.232;2023-04-08T15:28:40;2.05;;;1.90;;
14007;SDS011;61651;45.508;12.232;2023-04-08T15:31:42;3.42;;;1.90;;
14007;SDS011;61651;45.508;12.232;2023-04-08T15:34:44;3.08;;;2.10;;
14007;SDS011;61651;45.508;12.232;2023-04-08T15:37:46;3.00;;;2.30;;
14007;SDS011;61651;45.508;12.232;2023-04-08T15:40:49;5.80;;;2.42;;
14007;SDS011;61651;45.508;12.232;2023-04-08T15:43:51;5.90;;;2.50;;
14007;SDS011;61651;45.508;12.232;2023-04-08T15:46:53;2.72;;;2.13;;
14007;SDS011;61651;45.508;12.232;2023-04-08T15:49:55;3.70;;;2.05;;
14007;SDS011;61651;45.508;12.232;2023-04-08T15:52:57;4.13;;;2.03;;
14007;SDS011;61651;45.508;12.232;2023-04-08T15:56:00;3.28;;;2.55;;
14007;SDS011;61651;45.508;12.232;2023-04-08T15:59:03;4.75;;;2.97;;
14007;SDS011;61651;45.508;12.232;2023-04-08T16:02:05;4.07;;;2.70;;
14007;SDS011;61651;45.508;12.232;2023-04-08T16:05:07;4.65;;;3.13;;
14007;SDS011;61651;45.508;12.232;2023-04-08T16:08:11;3.40;;;3.10;;
14007;SDS011;61651;45.508;12.232;2023-04-08T16:11:14;3.00;;;2.70;;
14007;SDS011;61651;45.508;12.232;2023-04-08T16:14:16;3.63;;;2.70;;
14007;SDS011;61651;45.508;12.232;2023-04-08T16:17:19;3.25;;;2.45;;
14007;SDS011;61651;45.508;12.232;2023-04-08T16:20:22;2.33;;;2.08;;
14007;SDS011;61651;45.508;12.232;2023-04-08T16:23:24;4.47;;;2.40;;
14007;SDS011;61651;45.508;12.232;2023-04-08T16:26:27;4.57;;;2.75;;
14007;SDS011;61651;45.508;12.232;2023-04-08T16:29:29;4.80;;;2.50;;
14007;SDS011;61651;45.508;12.232;2023-04-08T16:32:31;2.55;;;2.25;;
14007;SDS011;61651;45.508;12.232;2023-04-08T16:35:33;3.65;;;2.80;;
14007;SDS011;61651;45.508;12.232;2023-04-08T16:38:35;4.45;;;2.80;;
14007;SDS011;61651;45.508;12.232;2023-04-08T16:41:39;3.95;;;2.70;;
14007;SDS011;61651;45.508;12.232;2023-04-08T16:44:41;2.85;;;2.60;;
14007;SDS011;61651;45.508;12.232;2023-04-08T16:47:43;2.83;;;2.50;;
14007;SDS011;61651;45.508;12.232;2023-04-08T16:50:45;3.55;;;2.50;;
14007;SDS011;61651;45.508;12.232;2023-04-08T16:53:47;3.05;;;2.83;;
14007;SDS011;61651;45.508;12.232;2023-04-08T16:56:50;6.55;;;2.35;;
14007;SDS011;61651;45.508;12.232;2023-04-08T16:59:52;3.72;;;2.92;;
14007;SDS011;61651;45.508;12.232;2023-04-08T17:02:54;4.80;;;4.25;;
14007;SDS011;61651;45.508;12.232;2023-04-08T17:06:04;4.93;;;4.07;;
14007;SDS011;61651;45.508;12.232;2023-04-08T17:09:06;7.13;;;4.57;;
14007;SDS011;61651;45.508;12.232;2023-04-08T17:12:09;6.80;;;4.80;;
14007;SDS011;61651;45.508;12.232;2023-04-08T17:15:11;4.68;;;3.80;;
14007;SDS011;61651;45.508;12.232;2023-04-08T17:18:13;6.50;;;3.25;;
14007;SDS011;61651;45.508;12.232;2023-04-08T17:21:15;5.15;;;3.78;;
14007;SDS011;61651;45.508;12.232;2023-04-08T17:24:17;5.85;;;4.70;;
14007;SDS011;61651;45.508;12.232;2023-04-08T17:27:21;4.25;;;3.00;;
14007;SDS011;61651;45.508;12.232;2023-04-08T17:30:23;4.68;;;3.30;;
14007;SDS011;61651;45.508;12.232;2023-04-08T17:33:25;3.70;;;2.83;;
14007;SDS011;61651;45.508;12.232;2023-04-08T17:36:27;3.17;;;2.80;;
14007;SDS011;61651;45.508;12.232;2023-04-08T17:39:30;3.03;;;2.35;;
14007;SDS011;61651;45.508;12.232;2023-04-08T17:42:33;3.35;;;2.83;;
14007;SDS011;61651;45.508;12.232;2023-04-08T17:45:35;5.78;;;2.80;;
14007;SDS011;61651;45.508;12.232;2023-04-08T17:48:37;3.05;;;2.58;;
14007;SDS011;61651;45.508;12.232;2023-04-08T17:51:39;3.33;;;2.83;;
14007;SDS011;61651;45.508;12.232;2023-04-08T17:54:41;3.60;;;2.80;;